sensor_id;sensor_type;location;lat;lon;timestamp;P1;durP1;ratioP1;P2;durP2;ratioP2
67597;SDS011;62026;39.230;9.122;2023-03-04T00:02:03;26.48;;;13.65;;
67597;SDS011;62026;39.230;9.122;2023-03-04T00:04:29;26.08;;;13.40;;
67597;SDS011;62026;39.230;9.122;2023-03-04T00:06:55;22.30;;;12.23;;
67597;SDS011;62026;39.230;9.122;2023-03-04T00:09:21;20.23;;;11.15;;
67597;SDS011;62026;39.230;9.122;2023-03-04T00:11:47;16.48;;;9.30;;
67597;SDS011;62026;39.230;9.122;2023-03-04T00:14:13;14.27;;;7.43;;
67597;SDS011;62026;39.230;9.122;2023-03-04T00:16:39;12.10;;;6.72;;
67597;SDS011;62026;39.230;9.122;2023-03-04T00:19:05;11.40;;;7.38;;
67597;SDS011;62026;39.230;9.122;2023-03-04T00:21:31;10.60;;;6.45;;
67597;SDS011;62026;39.230;9.122;2023-03-04T00:23:57;13.63;;;7.63;;
67597;SDS011;62026;39.230;9.122;2023-03-04T00:26:23;12.52;;;7.50;;
67597;SDS011;62026;39.230;9.122;2023-03-04T00:28:49;16.58;;;8.25;;
67597;SDS011;62026;39.230;9.122;2023-03-04T00:31:15;16.33;;;8.35;;
67597;SDS011;62026;39.230;9.122;2023-03-04T00:33:41;10.63;;;6.65;;
67597;SDS011;62026;39.230;9.122;2023-03-04T00:36:10;13.98;;;7.18;;
67597;SDS011;62026;39.230;9.122;2023-03-04T00:38:36;8.77;;;5.95;;
67597;SDS011;62026;39.230;9.122;2023-03-04T00:41:02;11.27;;;6.13;;
67597;SDS011;62026;39.230;9.122;2023-03-04T00:43:28;10.85;;;6.47;;
67597;SDS011;62026;39.230;9.122;2023-03-04T00:45:56;11.45;;;6.25;;
67597;SDS011;62026;39.230;9.122;2023-03-04T00:48:23;13.60;;;6.72;;
67597;SDS011;62026;39.230;9.122;2023-03-04T00:50:49;15.10;;;6.53;;
67597;SDS011;62026;39.230;9.122;2023-03-04T00:53:17;11.07;;;6.38;;
67597;SDS011;62026;39.230;9.122;2023-03-04T00:55:44;10.38;;;6.70;;
67597;SDS011;62026;39.230;9.122;2023-03-04T00:58:10;11.93;;;6.80;;
67597;SDS011;62026;39.230;9.122;2023-03-04T01:00:36;10.93;;;6.60;;
67597;SDS011;62026;39.230;9.122;2023-03-04T01:03:02;11.93;;;7.15;;
67597;SDS011;62026;39.230;9.122;2023-03-04T01:05:28;12.32;;;6.72;;
67597;SDS011;62026;39.230;9.122;2023-03-04T01:07:54;11.35;;;6.43;;
67597;SDS011;62026;39.230;9.122;2023-03-04T01:10:20;10.65;;;6.47;;
67597;SDS011;62026;39.230;9.122;2023-03-04T01:12:46;11.48;;;6.43;;
67597;SDS011;62026;39.230;9.122;2023-03-04T01:15:13;16.65;;;6.38;;
67597;SDS011;62026;39.230;9.122;2023-03-04T01:17:39;10.88;;;6.13;;
67597;SDS011;62026;39.230;9.122;2023-03-04T01:20:06;11.52;;;7.20;;
67597;SDS011;62026;39.230;9.122;2023-03-04T01:22:34;14.15;;;7.57;;
67597;SDS011;62026;39.230;9.122;2023-03-04T01:25:01;13.38;;;7.15;;
67597;SDS011;62026;39.230;9.122;2023-03-04T01:27:27;11.68;;;6.70;;
67597;SDS011;62026;39.230;9.122;2023-03-04T01:29:53;13.75;;;7.50;;
67597;SDS011;62026;39.230;9.122;2023-03-04T01:32:19;12.32;;;7.53;;
67597;SDS011;62026;39.230;9.122;2023-03-04T01:34:46;14.90;;;7.82;;
67597;SDS011;62026;39.230;9.122;2023-03-04T01:37:12;17.25;;;7.57;;
67597;SDS011;62026;39.230;9.122;2023-03-04T01:39:38;12.93;;;7.60;;
67597;SDS011;62026;39.230;9.122;2023-03-04T01:42:04;11.30;;;6.43;;
67597;SDS011;62026;39.230;9.122;2023-03-04T01:44:42;9.05;;;5.28;;
67597;SDS011;62026;39.230;9.122;2023-03-04T01:47:09;7.78;;;4.63;;
67597;SDS011;62026;39.230;9.122;2023-03-04T01:49:36;6.22;;;4.10;;
67597;SDS011;62026;39.230;9.122;2023-03-04T01:52:02;10.15;;;4.75;;
67597;SDS011;62026;39.230;9.122;2023-03-04T01:54:28;8.20;;;4.65;;
67597;SDS011;62026;39.230;9.122;2023-03-04T01:56:54;7.35;;;4.35;;
67597;SDS011;62026;39.230;9.122;2023-03-04T01:59:25;9.18;;;4.57;;
67597;SDS011;62026;39.230;9.122;2023-03-04T02:01:56;8.55;;;4.30;;
67597;SDS011;62026;39.230;9.122;2023-03-04T02:04:29;7.63;;;3.95;;
67597;SDS011;62026;39.230;9.122;2023-03-04T02:09:26;6.43;;;3.78;;
67597;SDS011;62026;39.230;9.122;2023-03-04T02:11:54;7.53;;;4.60;;
67597;SDS011;62026;39.230;9.122;2023-03-04T02:14:21;7.13;;;4.20;;
67597;SDS011;62026;39.230;9.122;2023-03-04T02:16:48;8.10;;;4.40;;
67597;SDS011;62026;39.230;9.122;2023-03-04T02:21:57;7.97;;;4.43;;
67597;SDS011;62026;39.230;9.122;2023-03-04T02:27:11;6.43;;;3.83;;
67597;SDS011;62026;39.230;9.122;2023-03-04T02:29:37;7.32;;;4.05;;
67597;SDS011;62026;39.230;9.122;2023-03-04T02:32:05;5.18;;;3.88;;
67597;SDS011;62026;39.230;9.122;2023-03-04T02:34:32;8.85;;;4.55;;
67597;SDS011;62026;39.230;9.122;2023-03-04T02:37:00;5.85;;;4.32;;
67597;SDS011;62026;39.230;9.122;2023-03-04T02:39:31;8.45;;;4.97;;
67597;SDS011;62026;39.230;9.122;2023-03-04T02:42:00;7.10;;;4.82;;
67597;SDS011;62026;39.230;9.122;2023-03-04T02:44:31;9.73;;;4.75;;
67597;SDS011;62026;39.230;9.122;2023-03-04T02:47:01;10.57;;;5.82;;
67597;SDS011;62026;39.230;9.122;2023-03-04T02:49:31;8.57;;;5.60;;
67597;SDS011;62026;39.230;9.122;2023-03-04T02:52:06;7.65;;;5.47;;
67597;SDS011;62026;39.230;9.122;2023-03-04T02:54:41;8.10;;;4.85;;
67597;SDS011;62026;39.230;9.122;2023-03-04T02:57:09;8.25;;;5.45;;
67597;SDS011;62026;39.230;9.122;2023-03-04T02:59:40;10.88;;;5.72;;
67597;SDS011;62026;39.230;9.122;2023-03-04T03:02:10;10.38;;;5.63;;
67597;SDS011;62026;39.230;9.122;2023-03-04T03:04:37;9.50;;;5.85;;
67597;SDS011;62026;39.230;9.122;2023-03-04T03:07:08;9.10;;;5.82;;
67597;SDS011;62026;39.230;9.122;2023-03-04T03:09:34;8.23;;;5.60;;
67597;SDS011;62026;39.230;9.122;2023-03-04T03:12:00;8.73;;;5.80;;
67597;SDS011;62026;39.230;9.122;2023-03-04T03:14:29;8.68;;;5.60;;
67597;SDS011;62026;39.230;9.122;2023-03-04T03:16:55;7.47;;;5.45;;
67597;SDS011;62026;39.230;9.122;2023-03-04T03:19:21;8.18;;;5.70;;
67597;SDS011;62026;39.230;9.122;2023-03-04T03:21:47;9.57;;;5.90;;
67597;SDS011;62026;39.230;9.122;2023-03-04T03:24:14;9.18;;;5.85;;
67597;SDS011;62026;39.230;9.122;2023-03-04T03:26:40;9.82;;;5.32;;
67597;SDS011;62026;39.230;9.122;2023-03-04T03:29:06;8.23;;;5.10;;
67597;SDS011;62026;39.230;9.122;2023-03-04T03:31:32;6.15;;;4.43;;
67597;SDS011;62026;39.230;9.122;2023-03-04T03:33:58;6.93;;;4.10;;
67597;SDS011;62026;39.230;9.122;2023-03-04T03:36:25;7.60;;;4.57;;
67597;SDS011;62026;39.230;9.122;2023-03-04T03:38:52;6.55;;;4.00;;
67597;SDS011;62026;39.230;9.122;2023-03-04T03:41:18;8.48;;;4.20;;
67597;SDS011;62026;39.230;9.122;2023-03-04T03:43:44;6.53;;;3.90;;
67597;SDS011;62026;39.230;9.122;2023-03-04T03:46:10;8.07;;;4.05;;
67597;SDS011;62026;39.230;9.122;2023-03-04T03:48:35;5.90;;;3.80;;
67597;SDS011;62026;39.230;9.122;2023-03-04T03:51:02;10.48;;;3.53;;
67597;SDS011;62026;39.230;9.122;2023-03-04T03:53:28;6.30;;;3.60;;
67597;SDS011;62026;39.230;9.122;2023-03-04T03:55:54;4.93;;;3.28;;
67597;SDS011;62026;39.230;9.122;2023-03-04T03:58:20;6.20;;;3.47;;
67597;SDS011;62026;39.230;9.122;2023-03-04T04:00:47;3.88;;;3.03;;
67597;SDS011;62026;39.230;9.122;2023-03-04T04:03:13;5.25;;;3.80;;
67597;SDS011;62026;39.230;9.122;2023-03-04T04:05:41;6.65;;;3.28;;
67597;SDS011;62026;39.230;9.122;2023-03-04T04:08:09;4.40;;;3.28;;
67597;SDS011;62026;39.230;9.122;2023-03-04T04:10:38;5.97;;;3.50;;
67597;SDS011;62026;39.230;9.122;2023-03-04T04:13:05;5.00;;;2.90;;
67597;SDS011;62026;39.230;9.122;2023-03-04T04:15:31;6.18;;;3.60;;
67597;SDS011;62026;39.230;9.122;2023-03-04T04:17:57;4.15;;;2.80;;
67597;SDS011;62026;39.230;9.122;2023-03-04T04:20:23;5.47;;;2.92;;
67597;SDS011;62026;39.230;9.122;2023-03-04T04:22:49;7.10;;;3.47;;
67597;SDS011;62026;39.230;9.122;2023-03-04T04:25:15;8.63;;;3.60;;
67597;SDS011;62026;39.230;9.122;2023-03-04T04:27:41;3.55;;;2.65;;
67597;SDS011;62026;39.230;9.122;2023-03-04T04:30:07;5.43;;;3.10;;
67597;SDS011;62026;39.230;9.122;2023-03-04T04:32:34;5.22;;;2.58;;
67597;SDS011;62026;39.230;9.122;2023-03-04T04:35:00;5.95;;;2.80;;
67597;SDS011;62026;39.230;9.122;2023-03-04T04:37:26;4.35;;;2.30;;
67597;SDS011;62026;39.230;9.122;2023-03-04T04:39:52;3.88;;;2.08;;
67597;SDS011;62026;39.230;9.122;2023-03-04T04:42:20;2.65;;;1.95;;
67597;SDS011;62026;39.230;9.122;2023-03-04T04:44:46;4.18;;;2.30;;
67597;SDS011;62026;39.230;9.122;2023-03-04T04:47:12;4.00;;;2.10;;
67597;SDS011;62026;39.230;9.122;2023-03-04T04:49:38;4.05;;;2.15;;
67597;SDS011;62026;39.230;9.122;2023-03-04T04:52:04;4.63;;;2.58;;
67597;SDS011;62026;39.230;9.122;2023-03-04T04:54:30;6.30;;;2.55;;
67597;SDS011;62026;39.230;9.122;2023-03-04T04:56:56;4.53;;;2.20;;
67597;SDS011;62026;39.230;9.122;2023-03-04T04:59:22;8.05;;;2.50;;
67597;SDS011;62026;39.230;9.122;2023-03-04T05:01:48;2.88;;;2.13;;
67597;SDS011;62026;39.230;9.122;2023-03-04T05:04:14;4.18;;;2.45;;
67597;SDS011;62026;39.230;9.122;2023-03-04T05:06:40;6.72;;;2.80;;
67597;SDS011;62026;39.230;9.122;2023-03-04T05:09:06;6.45;;;2.90;;
67597;SDS011;62026;39.230;9.122;2023-03-04T05:11:32;6.68;;;2.70;;
67597;SDS011;62026;39.230;9.122;2023-03-04T05:13:59;8.90;;;3.08;;
67597;SDS011;62026;39.230;9.122;2023-03-04T05:16:25;6.97;;;2.92;;
67597;SDS011;62026;39.230;9.122;2023-03-04T05:18:51;3.42;;;2.35;;
67597;SDS011;62026;39.230;9.122;2023-03-04T05:21:17;5.70;;;2.78;;
67597;SDS011;62026;39.230;9.122;2023-03-04T05:23:43;4.82;;;2.50;;
67597;SDS011;62026;39.230;9.122;2023-03-04T05:26:10;4.60;;;2.90;;
67597;SDS011;62026;39.230;9.122;2023-03-04T05:28:40;4.05;;;2.78;;
67597;SDS011;62026;39.230;9.122;2023-03-04T05:31:06;4.53;;;2.65;;
67597;SDS011;62026;39.230;9.122;2023-03-04T05:33:33;4.57;;;2.70;;
67597;SDS011;62026;39.230;9.122;2023-03-04T05:36:00;6.78;;;2.83;;
67597;SDS011;62026;39.230;9.122;2023-03-04T05:38:27;4.25;;;2.67;;
67597;SDS011;62026;39.230;9.122;2023-03-04T05:40:57;4.78;;;3.22;;
67597;SDS011;62026;39.230;9.122;2023-03-04T05:43:26;6.55;;;2.92;;
67597;SDS011;62026;39.230;9.122;2023-03-04T05:45:53;4.25;;;2.88;;
67597;SDS011;62026;39.230;9.122;2023-03-04T05:48:20;4.88;;;2.78;;
67597;SDS011;62026;39.230;9.122;2023-03-04T05:50:46;5.10;;;3.05;;
67597;SDS011;62026;39.230;9.122;2023-03-04T05:53:18;5.80;;;2.80;;
67597;SDS011;62026;39.230;9.122;2023-03-04T05:55:47;6.28;;;2.90;;
67597;SDS011;62026;39.230;9.122;2023-03-04T05:58:14;3.45;;;2.33;;
67597;SDS011;62026;39.230;9.122;2023-03-04T06:00:40;8.65;;;2.78;;
67597;SDS011;62026;39.230;9.122;2023-03-04T06:03:09;4.93;;;3.20;;
67597;SDS011;62026;39.230;9.122;2023-03-04T06:05:43;4.93;;;2.80;;
67597;SDS011;62026;39.230;9.122;2023-03-04T06:08:10;5.10;;;3.10;;
67597;SDS011;62026;39.230;9.122;2023-03-04T06:10:38;3.97;;;2.55;;
67597;SDS011;62026;39.230;9.122;2023-03-04T06:13:05;5.05;;;2.42;;
67597;SDS011;62026;39.230;9.122;2023-03-04T06:15:32;3.85;;;2.25;;
67597;SDS011;62026;39.230;9.122;2023-03-04T06:17:58;3.33;;;2.47;;
67597;SDS011;62026;39.230;9.122;2023-03-04T06:20:24;5.63;;;2.50;;
67597;SDS011;62026;39.230;9.122;2023-03-04T06:22:50;7.18;;;2.45;;
67597;SDS011;62026;39.230;9.122;2023-03-04T06:25:16;7.13;;;2.53;;
67597;SDS011;62026;39.230;9.122;2023-03-04T06:27:42;5.10;;;2.83;;
67597;SDS011;62026;39.230;9.122;2023-03-04T06:30:08;5.45;;;2.50;;
67597;SDS011;62026;39.230;9.122;2023-03-04T06:32:35;4.20;;;2.88;;
67597;SDS011;62026;39.230;9.122;2023-03-04T06:35:01;9.20;;;2.83;;
67597;SDS011;62026;39.230;9.122;2023-03-04T06:37:27;4.40;;;2.70;;
67597;SDS011;62026;39.230;9.122;2023-03-04T06:39:53;8.38;;;2.88;;
67597;SDS011;62026;39.230;9.122;2023-03-04T06:42:20;2.97;;;2.45;;
67597;SDS011;62026;39.230;9.122;2023-03-04T06:44:47;6.05;;;2.58;;
67597;SDS011;62026;39.230;9.122;2023-03-04T06:47:13;4.22;;;2.30;;
67597;SDS011;62026;39.230;9.122;2023-03-04T06:49:40;5.53;;;2.55;;
67597;SDS011;62026;39.230;9.122;2023-03-04T06:52:06;6.32;;;3.22;;
67597;SDS011;62026;39.230;9.122;2023-03-04T06:54:35;8.45;;;3.08;;
67597;SDS011;62026;39.230;9.122;2023-03-04T06:57:01;9.35;;;3.58;;
67597;SDS011;62026;39.230;9.122;2023-03-04T06:59:27;4.70;;;3.30;;
67597;SDS011;62026;39.230;9.122;2023-03-04T07:01:53;4.13;;;3.17;;
67597;SDS011;62026;39.230;9.122;2023-03-04T07:04:19;6.28;;;3.40;;
67597;SDS011;62026;39.230;9.122;2023-03-04T07:06:47;6.05;;;3.25;;
67597;SDS011;62026;39.230;9.122;2023-03-04T07:09:14;10.02;;;3.53;;
67597;SDS011;62026;39.230;9.122;2023-03-04T07:11:40;9.48;;;3.55;;
67597;SDS011;62026;39.230;9.122;2023-03-04T07:14:06;6.57;;;3.47;;
67597;SDS011;62026;39.230;9.122;2023-03-04T07:16:32;4.72;;;3.05;;
67597;SDS011;62026;39.230;9.122;2023-03-04T07:18:58;9.32;;;3.78;;
67597;SDS011;62026;39.230;9.122;2023-03-04T07:21:25;8.48;;;3.40;;
67597;SDS011;62026;39.230;9.122;2023-03-04T07:23:51;6.78;;;3.47;;
67597;SDS011;62026;39.230;9.122;2023-03-04T07:26:17;5.97;;;3.53;;
67597;SDS011;62026;39.230;9.122;2023-03-04T07:28:43;8.13;;;3.42;;
67597;SDS011;62026;39.230;9.122;2023-03-04T07:31:11;4.10;;;3.03;;
67597;SDS011;62026;39.230;9.122;2023-03-04T07:33:54;5.78;;;3.33;;
67597;SDS011;62026;39.230;9.122;2023-03-04T07:36:23;7.20;;;3.40;;
67597;SDS011;62026;39.230;9.122;2023-03-04T07:38:50;4.82;;;3.00;;
67597;SDS011;62026;39.230;9.122;2023-03-04T07:41:19;5.03;;;3.28;;
67597;SDS011;62026;39.230;9.122;2023-03-04T07:43:46;6.53;;;3.08;;
67597;SDS011;62026;39.230;9.122;2023-03-04T07:46:12;4.53;;;2.97;;
67597;SDS011;62026;39.230;9.122;2023-03-04T07:48:39;4.30;;;3.05;;
67597;SDS011;62026;39.230;9.122;2023-03-04T07:53:44;3.67;;;2.05;;
67597;SDS011;62026;39.230;9.122;2023-03-04T07:56:17;5.32;;;2.10;;
67597;SDS011;62026;39.230;9.122;2023-03-04T07:58:46;4.18;;;1.90;;
67597;SDS011;62026;39.230;9.122;2023-03-04T08:01:14;11.25;;;4.00;;
67597;SDS011;62026;39.230;9.122;2023-03-04T08:03:43;15.75;;;7.40;;
67597;SDS011;62026;39.230;9.122;2023-03-04T08:06:10;9.75;;;5.28;;
67597;SDS011;62026;39.230;9.122;2023-03-04T08:08:39;13.45;;;5.78;;
67597;SDS011;62026;39.230;9.122;2023-03-04T08:11:08;11.82;;;6.00;;
67597;SDS011;62026;39.230;9.122;2023-03-04T08:13:39;6.68;;;3.40;;
67597;SDS011;62026;39.230;9.122;2023-03-04T08:16:05;5.40;;;2.80;;
67597;SDS011;62026;39.230;9.122;2023-03-04T08:18:32;6.80;;;3.50;;
67597;SDS011;62026;39.230;9.122;2023-03-04T08:20:58;6.65;;;3.70;;
67597;SDS011;62026;39.230;9.122;2023-03-04T08:23:24;7.30;;;2.83;;
67597;SDS011;62026;39.230;9.122;2023-03-04T08:25:50;8.13;;;3.55;;
67597;SDS011;62026;39.230;9.122;2023-03-04T08:28:16;9.77;;;3.35;;
67597;SDS011;62026;39.230;9.122;2023-03-04T08:30:42;4.80;;;2.58;;
67597;SDS011;62026;39.230;9.122;2023-03-04T08:33:09;7.32;;;3.55;;
67597;SDS011;62026;39.230;9.122;2023-03-04T08:35:36;6.38;;;3.70;;
67597;SDS011;62026;39.230;9.122;2023-03-04T08:38:04;6.93;;;3.30;;
67597;SDS011;62026;39.230;9.122;2023-03-04T08:40:31;5.18;;;2.80;;
67597;SDS011;62026;39.230;9.122;2023-03-04T08:42:57;6.07;;;2.38;;
67597;SDS011;62026;39.230;9.122;2023-03-04T08:45:23;4.32;;;2.92;;
67597;SDS011;62026;39.230;9.122;2023-03-04T08:47:50;7.63;;;3.05;;
67597;SDS011;62026;39.230;9.122;2023-03-04T08:50:16;9.93;;;4.03;;
67597;SDS011;62026;39.230;9.122;2023-03-04T08:52:43;4.82;;;3.38;;
67597;SDS011;62026;39.230;9.122;2023-03-04T08:55:09;6.85;;;2.90;;
67597;SDS011;62026;39.230;9.122;2023-03-04T08:57:35;6.55;;;3.42;;
67597;SDS011;62026;39.230;9.122;2023-03-04T09:00:01;7.95;;;2.85;;
67597;SDS011;62026;39.230;9.122;2023-03-04T09:02:28;3.85;;;2.63;;
67597;SDS011;62026;39.230;9.122;2023-03-04T09:04:54;3.47;;;2.63;;
67597;SDS011;62026;39.230;9.122;2023-03-04T09:07:20;7.00;;;3.45;;
67597;SDS011;62026;39.230;9.122;2023-03-04T09:09:46;7.80;;;3.78;;
67597;SDS011;62026;39.230;9.122;2023-03-04T09:12:12;5.07;;;2.10;;
67597;SDS011;62026;39.230;9.122;2023-03-04T09:14:38;3.60;;;2.33;;
67597;SDS011;62026;39.230;9.122;2023-03-04T09:17:04;4.38;;;2.33;;
67597;SDS011;62026;39.230;9.122;2023-03-04T09:19:31;5.07;;;2.30;;
67597;SDS011;62026;39.230;9.122;2023-03-04T09:21:57;4.38;;;2.40;;
67597;SDS011;62026;39.230;9.122;2023-03-04T09:24:24;4.22;;;2.10;;
67597;SDS011;62026;39.230;9.122;2023-03-04T09:26:51;5.85;;;2.42;;
67597;SDS011;62026;39.230;9.122;2023-03-04T09:29:19;4.70;;;2.70;;
67597;SDS011;62026;39.230;9.122;2023-03-04T09:31:45;2.95;;;2.22;;
67597;SDS011;62026;39.230;9.122;2023-03-04T09:34:12;5.95;;;2.47;;
67597;SDS011;62026;39.230;9.122;2023-03-04T09:36:38;5.15;;;2.35;;
67597;SDS011;62026;39.230;9.122;2023-03-04T09:39:04;4.00;;;2.25;;
67597;SDS011;62026;39.230;9.122;2023-03-04T09:41:44;3.90;;;2.15;;
67597;SDS011;62026;39.230;9.122;2023-03-04T09:46:51;4.85;;;2.08;;
67597;SDS011;62026;39.230;9.122;2023-03-04T09:49:22;2.72;;;1.73;;
67597;SDS011;62026;39.230;9.122;2023-03-04T09:57:42;4.22;;;1.90;;
67597;SDS011;62026;39.230;9.122;2023-03-04T10:00:14;5.82;;;2.10;;
67597;SDS011;62026;39.230;9.122;2023-03-04T10:06:02;3.00;;;1.58;;
67597;SDS011;62026;39.230;9.122;2023-03-04T10:08:35;3.83;;;1.80;;
67597;SDS011;62026;39.230;9.122;2023-03-04T10:11:19;2.45;;;1.65;;
67597;SDS011;62026;39.230;9.122;2023-03-04T10:21:50;4.38;;;1.88;;
67597;SDS011;62026;39.230;9.122;2023-03-04T10:24:17;4.22;;;2.20;;
67597;SDS011;62026;39.230;9.122;2023-03-04T10:27:09;3.00;;;1.92;;
67597;SDS011;62026;39.230;9.122;2023-03-04T10:29:37;3.42;;;1.58;;
67597;SDS011;62026;39.230;9.122;2023-03-04T10:32:04;3.55;;;1.50;;
67597;SDS011;62026;39.230;9.122;2023-03-04T10:34:30;3.70;;;1.50;;
67597;SDS011;62026;39.230;9.122;2023-03-04T10:37:00;2.08;;;0.95;;
67597;SDS011;62026;39.230;9.122;2023-03-04T10:39:32;3.15;;;1.30;;
67597;SDS011;62026;39.230;9.122;2023-03-04T10:42:21;2.25;;;1.30;;
67597;SDS011;62026;39.230;9.122;2023-03-04T10:44:55;2.65;;;1.42;;
67597;SDS011;62026;39.230;9.122;2023-03-04T10:47:25;3.63;;;1.40;;
67597;SDS011;62026;39.230;9.122;2023-03-04T10:49:54;3.47;;;1.23;;
67597;SDS011;62026;39.230;9.122;2023-03-04T10:52:28;3.42;;;1.20;;
67597;SDS011;62026;39.230;9.122;2023-03-04T10:55:05;2.47;;;1.20;;
67597;SDS011;62026;39.230;9.122;2023-03-04T10:57:53;3.70;;;1.17;;
67597;SDS011;62026;39.230;9.122;2023-03-04T11:00:30;1.27;;;0.77;;
67597;SDS011;62026;39.230;9.122;2023-03-04T11:08:54;3.83;;;1.23;;
67597;SDS011;62026;39.230;9.122;2023-03-04T11:11:29;4.10;;;0.90;;
67597;SDS011;62026;39.230;9.122;2023-03-04T11:14:07;1.05;;;0.75;;
67597;SDS011;62026;39.230;9.122;2023-03-04T11:16:55;1.77;;;0.55;;
67597;SDS011;62026;39.230;9.122;2023-03-04T11:19:27;4.50;;;1.00;;
67597;SDS011;62026;39.230;9.122;2023-03-04T11:22:03;2.28;;;1.00;;
67597;SDS011;62026;39.230;9.122;2023-03-04T11:24:32;2.47;;;0.95;;
67597;SDS011;62026;39.230;9.122;2023-03-04T11:32:29;3.70;;;0.90;;
67597;SDS011;62026;39.230;9.122;2023-03-04T11:41:00;1.90;;;0.90;;
67597;SDS011;62026;39.230;9.122;2023-03-04T11:49:13;0.85;;;0.60;;
67597;SDS011;62026;39.230;9.122;2023-03-04T11:57:05;1.00;;;0.60;;
67597;SDS011;62026;39.230;9.122;2023-03-04T12:40:11;1.60;;;0.60;;
67597;SDS011;62026;39.230;9.122;2023-03-04T12:48:31;1.05;;;0.73;;
67597;SDS011;62026;39.230;9.122;2023-03-04T12:54:39;1.73;;;0.90;;
67597;SDS011;62026;39.230;9.122;2023-03-04T12:57:11;1.30;;;0.63;;
67597;SDS011;62026;39.230;9.122;2023-03-04T13:14:35;1.75;;;0.73;;
67597;SDS011;62026;39.230;9.122;2023-03-04T13:16:43;1.15;;;0.80;;
67597;SDS011;62026;39.230;9.122;2023-03-04T13:43:59;3.10;;;0.90;;
67597;SDS011;62026;39.230;9.122;2023-03-04T13:47:15;2.85;;;1.08;;
67597;SDS011;62026;39.230;9.122;2023-03-04T13:49:45;1.67;;;0.90;;
67597;SDS011;62026;39.230;9.122;2023-03-04T13:58:22;1.55;;;0.90;;
67597;SDS011;62026;39.230;9.122;2023-03-04T14:00:52;2.47;;;0.70;;
67597;SDS011;62026;39.230;9.122;2023-03-04T14:03:22;3.45;;;1.00;;
67597;SDS011;62026;39.230;9.122;2023-03-04T14:08:51;2.08;;;0.85;;
67597;SDS011;62026;39.230;9.122;2023-03-04T14:11:26;2.42;;;0.80;;
67597;SDS011;62026;39.230;9.122;2023-03-04T14:14:03;1.25;;;0.70;;
67597;SDS011;62026;39.230;9.122;2023-03-04T14:16:37;1.23;;;0.70;;
67597;SDS011;62026;39.230;9.122;2023-03-04T14:19:31;3.50;;;0.88;;
67597;SDS011;62026;39.230;9.122;2023-03-04T14:22:16;2.40;;;0.85;;
67597;SDS011;62026;39.230;9.122;2023-03-04T14:25:34;2.15;;;0.63;;
67597;SDS011;62026;39.230;9.122;2023-03-04T14:27:45;1.77;;;0.80;;
67597;SDS011;62026;39.230;9.122;2023-03-04T14:30:25;0.93;;;0.70;;
67597;SDS011;62026;39.230;9.122;2023-03-04T14:32:53;0.80;;;0.60;;
67597;SDS011;62026;39.230;9.122;2023-03-04T14:35:27;2.30;;;0.90;;
67597;SDS011;62026;39.230;9.122;2023-03-04T14:40:48;2.90;;;0.70;;
67597;SDS011;62026;39.230;9.122;2023-03-04T14:43:25;2.28;;;0.85;;
67597;SDS011;62026;39.230;9.122;2023-03-04T14:45:54;3.70;;;0.80;;
67597;SDS011;62026;39.230;9.122;2023-03-04T14:48:30;2.47;;;0.90;;
67597;SDS011;62026;39.230;9.122;2023-03-04T14:50:58;2.28;;;1.00;;
67597;SDS011;62026;39.230;9.122;2023-03-04T14:53:27;3.03;;;1.00;;
67597;SDS011;62026;39.230;9.122;2023-03-04T14:58:23;2.60;;;0.80;;
67597;SDS011;62026;39.230;9.122;2023-03-04T15:01:28;10.23;;;1.02;;
67597;SDS011;62026;39.230;9.122;2023-03-04T15:04:10;1.13;;;0.65;;
67597;SDS011;62026;39.230;9.122;2023-03-04T15:06:49;3.50;;;0.90;;
67597;SDS011;62026;39.230;9.122;2023-03-04T15:09:20;1.70;;;0.70;;
67597;SDS011;62026;39.230;9.122;2023-03-04T15:11:50;3.35;;;0.82;;
67597;SDS011;62026;39.230;9.122;2023-03-04T15:14:47;1.60;;;0.82;;
67597;SDS011;62026;39.230;9.122;2023-03-04T15:17:35;1.88;;;0.80;;
67597;SDS011;62026;39.230;9.122;2023-03-04T15:22:34;1.92;;;0.80;;
67597;SDS011;62026;39.230;9.122;2023-03-04T15:25:12;1.73;;;0.63;;
67597;SDS011;62026;39.230;9.122;2023-03-04T15:27:39;3.47;;;0.80;;
67597;SDS011;62026;39.230;9.122;2023-03-04T15:30:13;5.85;;;0.93;;
67597;SDS011;62026;39.230;9.122;2023-03-04T15:32:41;7.97;;;1.13;;
67597;SDS011;62026;39.230;9.122;2023-03-04T15:35:10;7.05;;;1.55;;
67597;SDS011;62026;39.230;9.122;2023-03-04T15:37:38;3.38;;;1.10;;
67597;SDS011;62026;39.230;9.122;2023-03-04T15:40:26;6.90;;;1.80;;
67597;SDS011;62026;39.230;9.122;2023-03-04T15:42:58;2.17;;;1.52;;
67597;SDS011;62026;39.230;9.122;2023-03-04T15:45:36;5.28;;;2.05;;
67597;SDS011;62026;39.230;9.122;2023-03-04T15:48:03;3.67;;;1.52;;
67597;SDS011;62026;39.230;9.122;2023-03-04T15:50:42;3.55;;;2.03;;
67597;SDS011;62026;39.230;9.122;2023-03-04T15:53:18;4.97;;;2.47;;
67597;SDS011;62026;39.230;9.122;2023-03-04T15:56:01;9.52;;;1.58;;
67597;SDS011;62026;39.230;9.122;2023-03-04T15:58:32;6.77;;;3.10;;
67597;SDS011;62026;39.230;9.122;2023-03-04T16:00:58;7.55;;;2.15;;
67597;SDS011;62026;39.230;9.122;2023-03-04T16:03:24;5.30;;;2.20;;
67597;SDS011;62026;39.230;9.122;2023-03-04T16:05:50;6.63;;;2.25;;
67597;SDS011;62026;39.230;9.122;2023-03-04T16:08:20;11.38;;;3.47;;
67597;SDS011;62026;39.230;9.122;2023-03-04T16:10:49;3.28;;;2.10;;
67597;SDS011;62026;39.230;9.122;2023-03-04T16:13:18;3.53;;;2.10;;
67597;SDS011;62026;39.230;9.122;2023-03-04T16:15:47;5.68;;;2.75;;
67597;SDS011;62026;39.230;9.122;2023-03-04T16:18:14;3.97;;;2.40;;
67597;SDS011;62026;39.230;9.122;2023-03-04T16:20:45;2.83;;;1.77;;
67597;SDS011;62026;39.230;9.122;2023-03-04T16:25:48;4.28;;;1.75;;
67597;SDS011;62026;39.230;9.122;2023-03-04T16:28:19;3.20;;;2.10;;
67597;SDS011;62026;39.230;9.122;2023-03-04T16:30:46;4.95;;;2.15;;
67597;SDS011;62026;39.230;9.122;2023-03-04T16:33:13;3.33;;;2.20;;
67597;SDS011;62026;39.230;9.122;2023-03-04T16:35:40;4.65;;;2.35;;
67597;SDS011;62026;39.230;9.122;2023-03-04T16:41:04;4.90;;;2.65;;
67597;SDS011;62026;39.230;9.122;2023-03-04T16:43:37;4.57;;;2.95;;
67597;SDS011;62026;39.230;9.122;2023-03-04T16:46:05;6.10;;;2.90;;
67597;SDS011;62026;39.230;9.122;2023-03-04T16:48:31;5.03;;;3.22;;
67597;SDS011;62026;39.230;9.122;2023-03-04T16:50:58;12.45;;;4.72;;
67597;SDS011;62026;39.230;9.122;2023-03-04T16:53:32;8.93;;;3.92;;
67597;SDS011;62026;39.230;9.122;2023-03-04T16:56:12;5.68;;;3.30;;
67597;SDS011;62026;39.230;9.122;2023-03-04T16:58:42;8.27;;;4.78;;
67597;SDS011;62026;39.230;9.122;2023-03-04T17:01:21;7.07;;;4.25;;
67597;SDS011;62026;39.230;9.122;2023-03-04T17:03:50;8.45;;;5.20;;
67597;SDS011;62026;39.230;9.122;2023-03-04T17:06:18;9.40;;;5.30;;
67597;SDS011;62026;39.230;9.122;2023-03-04T17:08:45;11.30;;;6.30;;
67597;SDS011;62026;39.230;9.122;2023-03-04T17:11:21;12.10;;;6.20;;
67597;SDS011;62026;39.230;9.122;2023-03-04T17:13:48;16.95;;;7.43;;
67597;SDS011;62026;39.230;9.122;2023-03-04T17:16:15;13.30;;;6.55;;
67597;SDS011;62026;39.230;9.122;2023-03-04T17:18:42;7.88;;;4.97;;
67597;SDS011;62026;39.230;9.122;2023-03-04T17:21:11;9.10;;;5.00;;
67597;SDS011;62026;39.230;9.122;2023-03-04T17:23:41;8.32;;;4.90;;
67597;SDS011;62026;39.230;9.122;2023-03-04T17:26:07;10.60;;;5.30;;
67597;SDS011;62026;39.230;9.122;2023-03-04T17:28:33;12.95;;;5.15;;
67597;SDS011;62026;39.230;9.122;2023-03-04T17:31:00;9.68;;;5.00;;
67597;SDS011;62026;39.230;9.122;2023-03-04T17:33:31;11.75;;;6.53;;
67597;SDS011;62026;39.230;9.122;2023-03-04T17:35:57;18.75;;;8.88;;
67597;SDS011;62026;39.230;9.122;2023-03-04T17:38:23;17.50;;;9.40;;
67597;SDS011;62026;39.230;9.122;2023-03-04T17:40:49;17.35;;;8.65;;
67597;SDS011;62026;39.230;9.122;2023-03-04T17:43:15;12.90;;;7.28;;
67597;SDS011;62026;39.230;9.122;2023-03-04T17:45:42;14.27;;;8.07;;
67597;SDS011;62026;39.230;9.122;2023-03-04T17:48:09;14.50;;;6.93;;